Time;durP1;ratioP1;P1;durP2;ratioP2;P2;SDS_P1;SDS_P2;PMS_P1;PMS_P2;Temp;Humidity;BMP_temperature;BMP_pressure;BME280_temperature;BME280_humidity;BME280_pressure;Samples;Min_cycle;Max_cycle;Signal;HPM_P1;HPM_P2
2022/03/11 00:02:35;;;;;;;15.13;5.37;;;;;;;-0.03;35.28;102131.25;5376487;32;34642;-66
2022/03/11 00:05:38;;;;;;;9.83;4.43;;;;;;;0.15;34.39;102123.22;5364652;32;34113;-66
2022/03/11 00:08:40;;;;;;;12.33;5.53;;;;;;;0.48;34.01;102131.13;5370463;32;34226;-69
2022/03/11 00:11:42;;;;;;;11.87;4.60;;;;;;;0.02;34.79;102137.47;5359606;32;34037;-67
2022/03/11 00:14:45;;;;;;;10.63;4.43;;;;;;;-0.80;36.33;102140.72;5345984;32;34475;-68
2022/03/11 00:17:47;;;;;;;11.27;4.50;;;;;;;-0.30;35.45;102141.59;5366609;32;33901;-65
2022/03/11 00:20:49;;;;;;;11.67;5.33;;;;;;;-0.76;36.49;102133.97;5367419;32;35168;-68
2022/03/11 00:23:51;;;;;;;12.60;5.20;;;;;;;-0.61;36.06;102132.78;5380689;32;35198;-68
2022/03/11 00:26:53;;;;;;;10.83;4.73;;;;;;;-1.17;36.88;102131.66;5363300;32;34866;-68
2022/03/11 00:29:56;;;;;;;10.80;5.33;;;;;;;-0.47;35.87;102132.38;5376033;32;35547;-69
2022/03/11 00:32:58;;;;;;;11.57;5.57;;;;;;;-0.58;36.12;102130.34;5360664;32;44693;-65
2022/03/11 00:36:00;;;;;;;14.50;5.43;;;;;;;0.00;35.05;102126.19;5366545;32;35441;-69
2022/03/11 00:39:02;;;;;;;12.43;4.70;;;;;;;-0.52;36.05;102128.75;5379793;32;34939;-68
2022/03/11 00:42:04;;;;;;;13.43;5.33;;;;;;;-0.50;35.95;102138.34;5361559;32;34849;-70
2022/03/11 00:45:07;;;;;;;10.90;4.43;;;;;;;-0.88;36.67;102130.12;5332910;32;34859;-69
2022/03/11 00:48:09;;;;;;;12.63;4.40;;;;;;;-0.85;36.57;102129.34;5330352;32;34900;-68
2022/03/11 00:51:11;;;;;;;10.93;5.00;;;;;;;-1.56;37.91;102127.59;5376368;32;35044;-66
2022/03/11 00:54:13;;;;;;;11.83;4.40;;;;;;;-1.28;37.61;102127.84;5366154;32;34607;-65
2022/03/11 00:57:16;;;;;;;11.60;4.60;;;;;;;-1.26;37.64;102128.75;5366050;32;35040;-68
2022/03/11 01:00:19;;;;;;;11.67;4.70;;;;;;;-0.63;36.28;102115.50;5356473;32;35201;-68
2022/03/11 01:03:21;;;;;;;8.87;4.20;;;;;;;-0.36;35.70;102128.47;5365320;32;34729;-68
2022/03/11 01:06:23;;;;;;;11.57;4.87;;;;;;;-1.17;37.07;102128.19;5380803;32;34876;-65
2022/03/11 01:09:25;;;;;;;12.80;4.83;;;;;;;-1.42;37.48;102132.47;5348910;32;34004;-64
2022/03/11 01:12:27;;;;;;;12.80;5.37;;;;;;;-1.74;38.16;102131.25;5369828;32;45080;-65
2022/03/11 01:15:29;;;;;;;11.73;4.53;;;;;;;-0.80;36.38;102121.78;5355881;32;34775;-64
2022/03/11 01:18:32;;;;;;;12.40;5.07;;;;;;;-1.93;38.78;102131.34;5353524;32;34869;-64
2022/03/11 01:21:34;;;;;;;13.73;5.10;;;;;;;-1.78;38.55;102113.91;5378673;32;34655;-65
2022/03/11 01:24:36;;;;;;;12.77;5.07;;;;;;;-1.80;38.74;102114.63;5363583;32;34524;-68
2022/03/11 01:27:38;;;;;;;13.13;4.90;;;;;;;-1.42;38.02;102117.00;5378139;32;34199;-65
2022/03/11 01:30:41;;;;;;;11.20;4.97;;;;;;;-1.08;36.98;102117.34;5363825;32;34252;-65
2022/03/11 01:33:45;;;;;;;8.80;4.20;;;;;;;-1.64;37.79;102117.87;5369799;32;34775;-68
2022/03/11 01:36:47;;;;;;;11.02;4.87;;;;;;;-0.46;35.57;102110.88;5340016;32;34511;-67
2022/03/11 01:39:49;;;;;;;11.23;5.30;;;;;;;-0.89;36.01;102119.75;5364117;32;34192;-68
2022/03/11 01:42:51;;;;;;;13.33;4.33;;;;;;;-0.64;36.18;102114.63;5368449;32;33789;-69
2022/03/11 01:45:54;;;;;;;10.53;4.27;;;;;;;-0.18;34.58;102115.28;5354598;32;34451;-67
2022/03/11 01:48:57;;;;;;;14.57;5.37;;;;;;;-0.01;34.59;102114.06;5368012;32;34888;-66
2022/03/11 01:51:59;;;;;;;13.70;5.13;;;;;;;-0.80;35.74;102122.66;5352052;32;45648;-64
2022/03/11 01:55:01;;;;;;;11.77;5.23;;;;;;;-1.53;37.34;102115.72;5358466;32;35241;-68
2022/03/11 01:58:05;;;;;;;11.53;4.63;;;;;;;-1.50;37.23;102102.91;5370285;32;34719;-64
2022/03/11 02:01:07;;;;;;;13.03;4.93;;;;;;;-2.00;38.38;102112.16;5363890;32;34864;-64
2022/03/11 02:04:09;;;;;;;11.37;4.87;;;;;;;-1.87;38.00;102112.66;5379427;32;34471;-68
2022/03/11 02:07:11;;;;;;;10.60;4.33;;;;;;;-1.10;36.85;102104.37;5362514;32;33669;-65
2022/03/11 02:10:14;;;;;;;14.33;4.70;;;;;;;-1.14;37.00;102116.31;5366771;32;35356;-69
2022/03/11 02:13:16;;;;;;;12.97;5.03;;;;;;;-1.20;37.16;102107.47;5357385;32;34695;-68
2022/03/11 02:16:22;;;;;;;10.90;4.77;;;;;;;-0.94;36.76;102109.28;5362451;32;34158;-69
2022/03/11 02:19:25;;;;;;;11.07;4.50;;;;;;;-1.12;36.38;102117.22;5378988;32;34657;-69
2022/03/11 02:22:27;;;;;;;13.77;4.83;;;;;;;-2.24;38.53;102131.81;5347262;32;43096;-68
2022/03/11 02:25:29;;;;;;;11.53;4.93;;;;;;;-2.14;38.62;102123.62;5366793;32;35414;-65
2022/03/11 02:28:32;;;;;;;12.60;4.70;;;;;;;-2.01;38.37;102113.00;5360766;32;35075;-65
2022/03/11 02:31:34;;;;;;;13.00;5.57;;;;;;;-1.91;38.17;102117.69;5377279;32;34614;-65
2022/03/11 02:34:38;;;;;;;10.53;4.53;;;;;;;-2.16;38.73;102120.12;5351645;32;34629;-68
2022/03/11 02:37:40;;;;;;;13.25;4.70;;;;;;;-2.02;38.29;102121.53;5364809;32;34011;-65
2022/03/11 02:40:42;;;;;;;12.10;4.53;;;;;;;-1.65;37.87;102104.94;5378820;32;35062;-66
2022/03/11 02:43:45;;;;;;;13.80;4.87;;;;;;;-1.85;37.68;102103.31;5343523;32;35183;-68
2022/03/11 02:46:47;;;;;;;12.97;5.13;;;;;;;-1.18;36.84;102111.84;5349693;32;34491;-64
2022/03/11 02:49:49;;;;;;;12.30;4.67;;;;;;;-1.64;37.16;102112.72;5361228;32;35938;-68
2022/03/11 02:52:51;;;;;;;13.20;4.83;;;;;;;-1.87;37.67;102100.63;5365585;32;35427;-69
2022/03/11 02:55:53;;;;;;;13.37;5.27;;;;;;;-1.74;37.94;102114.87;5341000;32;34093;-66
2022/03/11 02:58:55;;;;;;;11.33;4.77;;;;;;;-0.92;36.38;102107.59;5354233;32;34972;-67
2022/03/11 03:01:57;;;;;;;12.20;5.03;;;;;;;-2.27;39.18;102116.22;5364608;32;45654;-65
2022/03/11 03:05:01;;;;;;;11.30;4.67;;;;;;;-1.22;37.50;102109.13;5352509;32;34627;-65
2022/03/11 03:08:04;;;;;;;12.32;5.35;;;;;;;-1.80;38.46;102105.25;5370838;32;33008;-64
2022/03/11 03:11:06;;;;;;;10.87;4.67;;;;;;;-1.96;38.68;102114.06;5349020;32;35588;-66
2022/03/11 03:14:08;;;;;;;10.63;4.83;;;;;;;-1.29;37.50;102112.28;5353554;32;35288;-64
2022/03/11 03:17:10;;;;;;;11.80;4.73;;;;;;;-1.53;37.91;102115.72;5354765;32;34143;-68
2022/03/11 03:20:12;;;;;;;10.53;4.67;;;;;;;-1.26;37.44;102105.53;5352724;32;34138;-69
2022/03/11 03:23:14;;;;;;;13.63;5.27;;;;;;;-1.14;37.48;102093.06;5379284;32;34769;-70
2022/03/11 03:26:16;;;;;;;13.00;5.33;;;;;;;-1.34;38.34;102106.09;5340231;32;34346;-65
2022/03/11 03:29:18;;;;;;;13.23;4.93;;;;;;;-0.63;36.65;102110.34;5378065;32;35051;-69
2022/03/11 03:32:21;;;;;;;12.57;4.63;;;;;;;-1.49;38.20;102114.13;5362361;32;34171;-65
2022/03/11 03:35:23;;;;;;;9.80;4.57;;;;;;;-1.58;37.72;102103.47;5354344;32;35270;-68
2022/03/11 03:38:25;;;;;;;10.53;4.87;;;;;;;-2.21;39.06;102101.00;5362823;32;35554;-65
2022/03/11 03:41:27;;;;;;;13.47;4.77;;;;;;;-2.38;39.76;102102.94;5360381;32;44752;-65
2022/03/11 03:44:29;;;;;;;14.20;4.87;;;;;;;-2.03;38.95;102106.03;5354065;32;34124;-68
2022/03/11 03:47:32;;;;;;;14.40;5.43;;;;;;;-1.57;38.00;102094.91;5341445;32;34472;-67
2022/03/11 03:50:34;;;;;;;13.63;4.50;;;;;;;-1.51;38.05;102093.44;5381030;32;35570;-65
2022/03/11 03:53:36;;;;;;;13.00;5.40;;;;;;;-1.89;38.45;102104.87;5365361;32;35153;-69
2022/03/11 03:56:40;;;;;;;11.63;4.80;;;;;;;-1.64;38.23;102097.25;5366499;32;34926;-69
2022/03/11 03:59:42;;;;;;;14.18;4.87;;;;;;;-2.08;39.34;102112.69;5368322;32;35710;-65
2022/03/11 04:02:51;;;;;;;14.03;5.23;;;;;;;-1.83;38.78;102106.81;5363693;32;36176;-68
2022/03/11 04:05:54;;;;;;;11.43;4.80;;;;;;;-1.80;38.76;102124.94;5368459;32;34022;-68
2022/03/11 04:08:57;;;;;;;14.80;5.23;;;;;;;-2.09;39.55;102118.66;5364766;32;36570;-68
2022/03/11 04:11:59;;;;;;;11.10;4.77;;;;;;;-3.10;41.74;102129.84;5375695;32;44445;-65
2022/03/11 04:15:01;;;;;;;13.40;5.53;;;;;;;-2.83;41.49;102123.34;5359743;32;34964;-65
2022/03/11 04:18:04;;;;;;;12.73;5.00;;;;;;;-2.64;41.06;102129.25;5372869;32;34633;-65
2022/03/11 04:21:06;;;;;;;12.40;5.23;;;;;;;-2.76;41.04;102125.37;5374812;32;35215;-69
2022/03/11 04:24:14;;;;;;;13.40;5.33;;;;;;;-2.59;40.95;102128.63;5360086;32;34574;-68
2022/03/11 04:27:16;;;;;;;14.77;5.70;;;;;;;-2.49;40.19;102128.22;5378400;32;34907;-68
2022/03/11 04:30:18;;;;;;;11.90;5.10;;;;;;;-2.43;40.39;102130.19;5366091;32;34512;-64
2022/03/11 04:33:21;;;;;;;14.80;5.10;;;;;;;-2.44;40.54;102133.56;5379408;32;33992;-68
2022/03/11 04:36:23;;;;;;;15.03;5.10;;;;;;;-2.59;40.26;102120.03;5352872;32;34564;-66
2022/03/11 04:39:26;;;;;;;14.40;5.30;;;;;;;-2.67;40.66;102129.16;5366483;32;35352;-68
2022/03/11 04:42:29;;;;;;;27.83;10.60;;;;;;;-2.05;39.61;102136.91;5355746;32;46308;-69
2022/03/11 04:45:31;;;;;;;13.87;5.03;;;;;;;-2.36;40.11;102139.03;5349515;32;34321;-65
2022/03/11 04:48:36;;;;;;;16.17;5.77;;;;;;;-2.79;40.58;102143.25;5369876;32;34666;-67
2022/03/11 04:51:42;;;;;;;14.83;5.40;;;;;;;-2.60;40.91;102137.19;5363619;32;34751;-68
2022/03/11 04:54:44;;;;;;;15.60;5.23;;;;;;;-2.57;40.71;102132.19;5365677;32;33969;-65
2022/03/11 04:57:46;;;;;;;13.77;5.10;;;;;;;-2.68;40.98;102138.56;5367045;32;34056;-66
2022/03/11 05:00:48;;;;;;;14.60;5.40;;;;;;;-2.45;40.50;102136.94;5364648;32;35272;-68
2022/03/11 05:03:50;;;;;;;17.93;5.97;;;;;;;-2.27;39.99;102142.84;5367131;32;33998;-65
2022/03/11 05:06:53;;;;;;;13.00;5.30;;;;;;;-2.66;40.84;102147.22;5362722;32;34339;-68
2022/03/11 05:09:55;;;;;;;14.27;5.30;;;;;;;-2.30;40.02;102149.59;5362942;32;34927;-64
2022/03/11 05:12:57;;;;;;;17.70;6.33;;;;;;;-2.42;40.01;102161.97;5343920;32;37127;-65
2022/03/11 05:15:59;;;;;;;14.43;5.53;;;;;;;-2.47;40.17;102148.87;5349091;32;34822;-69
2022/03/11 05:19:02;;;;;;;16.33;5.67;;;;;;;-2.83;40.79;102161.97;5351625;32;34737;-69
2022/03/11 05:22:04;;;;;;;16.57;5.87;;;;;;;-2.79;40.99;102150.97;5363329;32;34981;-64
2022/03/11 05:25:07;;;;;;;13.77;5.83;;;;;;;-2.22;39.93;102150.78;5377656;32;35230;-64
2022/03/11 05:28:09;;;;;;;10.23;5.00;;;;;;;-1.84;38.81;102151.44;5352898;32;34619;-65
2022/03/11 05:31:11;;;;;;;12.73;5.63;;;;;;;-2.02;39.67;102156.75;5381104;32;34865;-65
2022/03/11 05:34:13;;;;;;;19.40;7.77;;;;;;;-2.73;40.64;102161.53;5358673;32;34693;-65
2022/03/11 05:37:15;;;;;;;16.43;5.93;;;;;;;-2.39;40.29;102156.91;5376489;32;35133;-70
2022/03/11 05:40:18;;;;;;;18.43;5.67;;;;;;;-1.56;38.79;102161.12;5366931;32;34584;-65
2022/03/11 05:43:20;;;;;;;14.80;5.90;;;;;;;-0.86;37.48;102163.75;5338894;32;34968;-67
2022/03/11 05:46:22;;;;;;;14.67;5.60;;;;;;;-1.55;38.24;102173.19;5373319;32;35021;-67
2022/03/11 05:49:24;;;;;;;10.50;4.97;;;;;;;-1.01;37.33;102173.53;5351471;32;36800;-66
2022/03/11 05:52:26;;;;;;;13.50;5.10;;;;;;;-1.16;37.54;102177.31;5376954;32;35376;-65
2022/03/11 05:55:28;;;;;;;13.43;5.37;;;;;;;-0.38;36.68;102174.91;5362725;32;44360;-68
2022/03/11 05:58:30;;;;;;;15.43;5.33;;;;;;;-0.74;36.45;102178.78;5365091;32;33938;-69
2022/03/11 06:01:33;;;;;;;13.23;5.87;;;;;;;0.35;34.30;102172.97;5350739;32;33315;-67
2022/03/11 06:04:36;;;;;;;15.30;6.23;;;;;;;1.10;33.77;102170.00;5337867;32;34854;-68
2022/03/11 06:07:39;;;;;;;22.53;6.80;;;;;;;1.00;33.09;102179.22;5377307;32;33954;-65
2022/03/11 06:10:42;;;;;;;18.80;7.50;;;;;;;1.14;33.02;102183.06;5347813;32;33882;-67
2022/03/11 06:13:45;;;;;;;15.57;6.10;;;;;;;2.94;30.30;102181.41;5363015;32;35045;-66
2022/03/11 06:16:47;;;;;;;12.33;5.80;;;;;;;2.78;30.31;102184.56;5361179;32;32654;-69
2022/03/11 06:19:49;;;;;;;15.80;6.87;;;;;;;4.51;27.61;102183.34;5376759;32;35050;-71
2022/03/11 06:22:54;;;;;;;17.73;7.30;;;;;;;2.62;30.06;102193.72;5354412;32;36124;-63
2022/03/11 06:25:56;;;;;;;14.90;6.43;;;;;;;2.50;30.40;102181.31;5351397;32;34502;-73
2022/03/11 06:28:59;;;;;;;19.23;7.47;;;;;;;4.20;27.90;102180.25;5366295;32;44433;-65
2022/03/11 06:32:01;;;;;;;15.57;6.93;;;;;;;4.43;27.09;102182.31;5351487;32;34720;-65
2022/03/11 06:35:03;;;;;;;15.37;6.20;;;;;;;2.07;29.57;102177.75;5373014;32;34783;-71
2022/03/11 06:38:06;;;;;;;15.37;6.47;;;;;;;4.52;26.84;102167.72;5353706;32;32515;-73
2022/03/11 06:41:09;;;;;;;13.60;6.75;;;;;;;5.87;24.94;102177.97;5370761;32;34101;-72
2022/03/11 06:44:11;;;;;;;12.60;6.03;;;;;;;5.94;23.79;102182.41;5346179;32;34999;-74
2022/03/11 06:47:13;;;;;;;9.60;4.90;;;;;;;3.39;27.65;102202.25;5347483;32;34451;-67
2022/03/11 06:50:17;;;;;;;16.47;6.47;;;;;;;2.72;28.58;102208.66;5375074;32;34812;-62
2022/03/11 06:53:25;;;;;;;17.25;7.32;;;;;;;2.92;29.09;102206.50;5349994;32;34993;-67
2022/03/11 06:56:27;;;;;;;16.57;5.80;;;;;;;4.53;27.13;102189.44;5373092;32;44601;-65
2022/03/11 06:59:29;;;;;;;13.37;5.70;;;;;;;3.33;27.74;102203.84;5359819;32;34242;-63
2022/03/11 07:02:31;;;;;;;18.90;6.80;;;;;;;3.99;26.74;102190.31;5361295;32;34114;-64
2022/03/11 07:05:34;;;;;;;17.40;6.63;;;;;;;4.39;26.16;102190.97;5374148;32;34192;-63
2022/03/11 07:08:36;;;;;;;12.50;5.80;;;;;;;3.26;28.04;102208.94;5362650;32;34337;-71
2022/03/11 07:11:38;;;;;;;14.90;5.63;;;;;;;3.66;26.95;102201.00;5361412;32;34831;-62
2022/03/11 07:14:41;;;;;;;11.53;5.10;;;;;;;3.94;26.64;102210.19;5355099;32;33926;-65
2022/03/11 07:17:46;;;;;;;14.98;5.65;;;;;;;3.84;26.27;102209.13;5372263;32;34029;-73
2022/03/11 07:20:48;;;;;;;14.30;6.10;;;;;;;4.15;26.09;102217.47;5360194;32;34125;-70
2022/03/11 07:24:06;;;;;;;11.87;5.37;;;;;;;7.27;22.53;102187.50;5352577;32;44463;-65
2022/03/11 07:27:10;;;;;;;12.57;6.00;;;;;;;4.49;25.04;102205.84;5363708;32;35159;-69
2022/03/11 07:30:13;;;;;;;14.70;5.87;;;;;;;5.28;24.73;102204.31;5344208;32;35321;-64
2022/03/11 07:33:16;;;;;;;10.88;5.43;;;;;;;7.70;21.51;102191.12;5361475;32;34387;-67
2022/03/11 07:36:18;;;;;;;13.90;6.47;;;;;;;5.30;24.29;102202.59;5366499;32;35247;-66
2022/03/11 07:39:21;;;;;;;11.67;5.70;;;;;;;5.14;24.87;102200.66;5371369;32;35574;-75
2022/03/11 07:42:23;;;;;;;12.93;5.80;;;;;;;6.90;23.11;102194.38;5365771;32;34027;-75
2022/03/11 07:45:28;;;;;;;14.20;5.93;;;;;;;4.92;24.51;102198.66;5351067;32;46251;-83
2022/03/11 07:48:30;;;;;;;14.03;6.00;;;;;;;4.91;24.88;102205.59;5368378;32;34161;-72
2022/03/11 07:51:32;;;;;;;15.27;6.00;;;;;;;4.73;25.43;102203.59;5365451;32;33943;-72
2022/03/11 07:54:35;;;;;;;13.40;5.40;;;;;;;5.51;23.94;102198.47;5378287;32;35295;-74
2022/03/11 07:57:39;;;;;;;14.53;5.57;;;;;;;5.60;23.67;102201.16;5365325;32;35425;-80
2022/03/11 08:00:42;;;;;;;12.30;5.50;;;;;;;5.23;23.82;102206.00;5373083;32;35387;-68
2022/03/11 08:03:44;;;;;;;11.10;5.62;;;;;;;5.76;22.95;102204.81;5375518;32;35289;-72
2022/03/11 08:06:46;;;;;;;9.83;4.57;;;;;;;3.32;25.63;102215.09;5367045;32;36047;-70
2022/03/11 08:09:49;;;;;;;9.80;4.90;;;;;;;4.14;24.78;102201.00;5377691;32;35193;-68
2022/03/11 08:12:53;;;;;;;10.97;4.97;;;;;;;3.32;25.34;102208.19;5366530;32;35251;-71
2022/03/11 08:15:55;;;;;;;11.07;5.10;;;;;;;2.80;25.50;102217.50;5370346;32;34353;-68
2022/03/11 08:18:58;;;;;;;14.63;5.23;;;;;;;2.45;26.95;102206.31;5368478;32;44393;-66
2022/03/11 08:22:02;;;;;;;16.63;5.33;;;;;;;2.77;26.60;102211.34;5365001;32;33903;-69
2022/03/11 08:25:05;;;;;;;9.52;4.00;;;;;;;2.32;27.63;102206.84;5379276;32;35768;-68
2022/03/11 08:28:10;;;;;;;10.95;4.80;;;;;;;1.58;28.26;102217.97;5371434;32;33843;-71
2022/03/11 08:31:14;;;;;;;11.37;4.87;;;;;;;1.41;28.30;102202.78;5368344;32;34540;-75
2022/03/11 08:34:17;;;;;;;10.65;4.32;;;;;;;1.48;29.02;102204.72;5363530;32;37257;-63
2022/03/11 08:37:20;;;;;;;11.33;4.67;;;;;;;2.26;27.18;102198.94;5380999;32;34309;-72
2022/03/11 08:40:24;;;;;;;16.70;5.32;;;;;;;1.53;28.54;102198.81;5370973;32;33933;-65
2022/03/11 08:43:26;;;;;;;12.35;4.97;;;;;;;2.74;27.06;102190.50;5354049;32;35485;-66
2022/03/11 08:46:30;;;;;;;17.10;4.37;;;;;;;2.85;26.92;102189.03;5352603;32;44669;-74
2022/03/11 08:49:32;;;;;;;12.10;4.57;;;;;;;1.19;28.68;102188.38;5354640;32;34136;-64
2022/03/11 08:52:36;;;;;;;10.87;3.87;;;;;;;0.91;29.20;102189.31;5377184;32;35378;-73
2022/03/11 08:55:38;;;;;;;;;;;;;;;1.69;27.85;102179.37;5358261;32;33906;-72
2022/03/11 08:58:40;;;;;;;12.07;4.03;;;;;;;1.68;27.62;102181.94;5374770;32;34191;-64
2022/03/11 09:01:43;;;;;;;9.10;3.83;;;;;;;1.99;27.27;102173.19;5356530;32;34062;-67
2022/03/11 09:04:45;;;;;;;13.07;4.20;;;;;;;2.57;26.51;102172.84;5361878;32;34024;-66
2022/03/11 09:07:49;;;;;;;11.03;3.93;;;;;;;2.28;26.51;102171.31;5373783;32;34118;-67
2022/03/11 09:10:51;;;;;;;10.80;4.22;;;;;;;2.21;26.50;102169.41;5341495;32;36752;-75
2022/03/11 09:13:53;;;;;;;12.73;5.40;;;;;;;2.12;26.75;102183.03;5362468;32;35599;-73
2022/03/11 09:16:56;;;;;;;9.77;4.03;;;;;;;2.28;26.64;102168.72;5366924;32;34180;-74
2022/03/11 09:20:03;;;;;;;9.37;4.33;;;;;;;2.62;26.26;102160.84;5362195;32;44546;-77
2022/03/11 09:23:26;;;;;;;10.67;4.27;;;;;;;2.40;26.81;102161.22;5359434;32;35517;-68
2022/03/11 09:26:30;;;;;;;9.93;4.07;;;;;;;2.38;26.42;102161.19;5348209;32;44633;-73
2022/03/11 09:29:53;;;;;;;12.97;4.33;;;;;;;3.36;25.64;102145.03;5367527;32;37288;-75
2022/03/11 09:32:55;;;;;;;10.00;4.07;;;;;;;2.18;26.59;102146.84;5347260;32;35905;-86
2022/03/11 09:35:58;;;;;;;10.97;4.40;;;;;;;2.28;26.94;102163.53;5374891;32;43050;-73
2022/03/11 09:39:00;;;;;;;13.27;5.47;;;;;;;2.10;27.06;102156.19;5368491;32;34677;-77
2022/03/11 09:42:04;;;;;;;11.17;4.77;;;;;;;1.85;27.60;102149.53;5354159;32;34143;-66
2022/03/11 09:45:07;;;;;;;12.57;4.95;;;;;;;2.24;27.31;102152.19;5360034;32;35236;-69
2022/03/11 09:48:10;;;;;;;11.63;4.50;;;;;;;3.11;26.01;102143.69;5369200;32;35320;-71
2022/03/11 09:51:17;;;;;;;12.63;3.67;;;;;;;2.95;26.49;102147.69;5348620;32;32972;-70
2022/03/11 09:54:21;;;;;;;9.23;4.27;;;;;;;5.39;22.69;102116.62;5342355;32;34031;-71
2022/03/11 09:57:24;;;;;;;12.65;4.68;;;;;;;7.04;20.98;102109.00;5371679;32;33319;-71
2022/03/11 10:00:27;;;;;;;11.00;4.07;;;;;;;10.39;17.54;102105.09;5376125;32;35432;-78
2022/03/11 10:03:31;;;;;;;11.77;4.63;;;;;;;8.97;18.04;102099.22;5361455;32;44497;-70
2022/03/11 10:06:42;;;;;;;9.30;3.90;;;;;;;7.13;19.80;102114.25;5373200;32;32792;-73
2022/03/11 10:09:45;;;;;;;10.47;4.33;;;;;;;8.79;18.76;102107.16;5354878;32;33921;-70
2022/03/11 10:12:47;;;;;;;10.10;4.23;;;;;;;10.72;16.04;102088.94;5363887;32;35147;-68
2022/03/11 10:15:50;;;;;;;7.85;3.95;;;;;;;10.00;16.10;102102.84;5372205;32;33859;-73
2022/03/11 10:19:04;;;;;;;9.77;3.72;;;;;;;9.86;16.45;102095.97;5341287;32;33967;-67
2022/03/11 10:22:07;;;;;;;10.60;4.53;;;;;;;12.94;14.74;102078.06;5365645;32;36245;-66
2022/03/11 10:25:20;;;;;;;10.03;4.00;;;;;;;12.11;14.66;102088.56;5367624;32;34173;-63
2022/03/11 10:28:27;;;;;;;7.53;3.75;;;;;;;14.00;13.03;102078.19;5373589;32;33978;-79
2022/03/11 10:31:30;;;;;;;10.53;3.67;;;;;;;9.78;15.36;102094.25;5370300;32;44543;-77
2022/03/11 10:34:34;;;;;;;6.70;3.08;;;;;;;10.31;15.35;102102.56;5359408;32;34217;-78
2022/03/11 10:37:37;;;;;;;8.90;3.87;;;;;;;10.46;15.49;102091.88;5378306;32;35463;-66
2022/03/11 10:40:50;;;;;;;6.97;3.67;;;;;;;9.09;15.94;102100.91;5369319;32;35605;-78
2022/03/11 10:44:03;;;;;;;6.82;3.40;;;;;;;12.56;13.92;102072.72;5360869;32;34749;-66
2022/03/11 10:47:19;;;;;;;9.80;3.80;;;;;;;12.47;13.77;102066.75;5349476;32;44439;-76
2022/03/11 10:50:22;;;;;;;12.07;3.87;;;;;;;14.43;12.02;102061.16;5361217;32;34841;-77
2022/03/11 10:53:24;;;;;;;9.07;4.37;;;;;;;11.57;14.50;102070.16;5373885;32;34616;-77
2022/03/11 10:56:40;;;;;;;7.47;3.95;;;;;;;13.97;12.61;102051.81;5354829;32;34136;-74
2022/03/11 10:59:42;;;;;;;9.53;3.93;;;;;;;12.82;13.36;102053.75;5366035;32;34093;-78
2022/03/11 11:02:45;;;;;;;8.17;3.73;;;;;;;8.76;15.99;102073.09;5346330;32;33882;-78
2022/03/11 11:05:48;;;;;;;9.40;3.90;;;;;;;11.95;13.30;102052.84;5345192;32;33944;-77
2022/03/11 11:08:51;;;;;;;11.82;4.53;;;;;;;11.52;13.40;102043.00;5365590;32;35529;-80
2022/03/11 11:11:53;;;;;;;8.85;4.30;;;;;;;11.68;13.74;102036.59;5358949;32;35233;-65
2022/03/11 11:14:55;;;;;;;8.87;4.13;;;;;;;9.63;15.76;102034.03;5370694;32;35497;-77
2022/03/11 11:18:00;;;;;;;10.43;4.12;;;;;;;9.62;15.51;102037.53;5358735;32;44927;-71
2022/03/11 11:21:05;;;;;;;10.17;4.27;;;;;;;9.93;15.84;102026.75;5375255;32;35430;-67
2022/03/11 11:24:19;;;;;;;14.40;5.00;;;;;;;9.61;16.42;102029.69;5350759;32;34165;-69
2022/03/11 11:27:21;;;;;;;9.60;3.90;;;;;;;10.85;15.26;102019.47;5368490;32;34866;-69
2022/03/11 11:30:24;;;;;;;9.40;4.20;;;;;;;12.17;14.29;102010.25;5373619;32;36444;-66
2022/03/11 11:33:27;;;;;;;12.02;3.60;;;;;;;8.91;16.68;102020.59;5362871;32;33990;-72
2022/03/11 11:36:40;;;;;;;10.93;4.57;;;;;;;8.89;16.20;102027.59;5378293;32;44701;-71
2022/03/11 11:39:43;;;;;;;10.60;4.77;;;;;;;8.33;17.34;102015.59;5355701;32;34128;-72
2022/03/11 11:43:10;;;;;;;16.45;4.45;;;;;;;8.51;17.37;102012.94;5363523;32;33993;-63
2022/03/11 11:46:15;;;;;;;12.20;5.00;;;;;;;10.32;15.09;101996.56;5366915;32;35022;-63
2022/03/11 11:49:22;;;;;;;8.70;3.60;;;;;;;9.67;16.07;102006.00;5368193;32;35257;-67
2022/03/11 11:52:36;;;;;;;8.77;3.47;;;;;;;9.61;15.40;101999.03;5375839;32;47236;-73
2022/03/11 11:55:58;;;;;;;8.83;3.43;;;;;;;7.93;15.90;101997.41;5350494;32;44689;-71
2022/03/11 11:59:09;;;;;;;6.57;3.42;;;;;;;8.21;15.70;101989.44;5365661;32;34960;-67
2022/03/11 12:02:32;;;;;;;8.53;4.27;;;;;;;8.93;15.56;101988.22;5371499;32;33805;-69
2022/03/11 12:05:45;;;;;;;11.88;4.20;;;;;;;8.33;16.20;101971.94;5341672;32;44582;-71
2022/03/11 12:08:48;;;;;;;7.83;3.30;;;;;;;7.94;16.17;101980.81;5378971;32;34770;-73
2022/03/11 12:11:50;;;;;;;8.57;3.30;;;;;;;9.50;14.62;101972.87;5347867;32;34860;-64
2022/03/11 12:14:58;;;;;;;10.33;3.60;;;;;;;10.30;14.22;101972.03;5368597;32;35812;-73
2022/03/11 12:18:02;;;;;;;9.87;3.60;;;;;;;8.36;14.91;101984.16;5368980;32;44876;-72
2022/03/11 12:21:05;;;;;;;;;;;;;;;11.03;13.25;101963.09;5362890;32;34340;-73
2022/03/11 12:24:33;;;;;;;10.30;3.67;;;;;;;11.27;13.33;101953.94;5376940;32;34331;-64
2022/03/11 12:28:03;;;;;;;7.37;3.00;;;;;;;12.17;12.14;101954.00;5357684;32;44982;-72
2022/03/11 12:31:09;;;;;;;8.83;3.60;;;;;;;10.57;13.99;101955.91;5368400;32;48308;-73
2022/03/11 12:34:12;;;;;;;8.50;3.53;;;;;;;10.23;13.37;101962.47;5374757;32;34563;-73
2022/03/11 12:37:14;;;;;;;9.63;3.83;;;;;;;9.75;13.76;101955.13;5361937;32;35195;-73
2022/03/11 12:40:21;;;;;;;10.40;3.47;;;;;;;12.25;12.26;101938.06;5382366;32;34688;-66
2022/03/11 12:43:23;;;;;;;8.67;3.17;;;;;;;12.25;12.28;101933.62;5343925;32;34805;-71
2022/03/11 12:46:26;;;;;;;10.30;3.53;;;;;;;11.10;12.62;101940.19;5360939;32;35169;-74
2022/03/11 12:49:28;;;;;;;8.00;3.35;;;;;;;13.67;10.88;101918.75;5361654;32;46942;-73
2022/03/11 12:52:39;;;;;;;7.23;3.40;;;;;;;13.10;11.03;101928.13;5361061;32;34453;-64
2022/03/11 12:55:46;;;;;;;8.80;3.67;;;;;;;13.97;10.50;101912.56;5378481;32;34749;-64
2022/03/11 12:58:48;;;;;;;10.30;3.90;;;;;;;12.50;11.71;101918.16;5363276;32;34262;-63
2022/03/11 13:01:52;;;;;;;10.23;3.67;;;;;;;10.29;13.26;101928.25;5381031;32;34846;-64
2022/03/11 13:04:54;;;;;;;9.30;3.50;;;;;;;12.76;10.98;101917.53;5353052;32;36156;-72
2022/03/11 13:08:06;;;;;;;11.80;3.73;;;;;;;11.16;11.46;101920.81;5366194;32;44620;-74
2022/03/11 13:11:12;;;;;;;11.27;4.87;;;;;;;12.97;11.00;101906.47;5371712;32;35019;-71
2022/03/11 13:14:14;;;;;;;14.23;6.00;;;;;;;12.50;11.22;101917.28;5359934;32;34195;-65
2022/03/11 13:17:16;;;;;;;8.67;3.40;;;;;;;14.44;10.28;101904.16;5353336;32;35681;-64
2022/03/11 13:20:33;;;;;;;9.83;4.60;;;;;;;14.18;10.37;101900.53;5366244;32;34084;-72
2022/03/11 13:23:38;;;;;;;9.93;4.50;;;;;;;15.68;9.20;101892.94;5373309;32;45932;-63
2022/03/11 13:26:40;;;;;;;6.97;2.93;;;;;;;16.95;8.80;101880.91;5363313;32;34129;-65
2022/03/11 13:29:43;;;;;;;9.50;3.30;;;;;;;17.36;8.05;101872.06;5351140;32;35013;-65
2022/03/11 13:32:45;;;;;;;5.70;2.90;;;;;;;17.14;8.17;101875.66;5374470;32;34338;-73
2022/03/11 13:35:49;;;;;;;5.20;2.67;;;;;;;11.63;11.15;101901.50;5365476;32;34891;-65
2022/03/11 13:38:54;;;;;;;8.77;3.20;;;;;;;20.68;6.59;101853.44;5367543;32;34839;-72
2022/03/11 13:41:57;;;;;;;11.63;4.03;;;;;;;17.13;8.07;101858.00;5361014;32;34184;-65
2022/03/11 13:45:07;;;;;;;6.40;3.20;;;;;;;15.71;8.92;101861.00;5352353;32;44540;-67
2022/03/11 13:48:09;;;;;;;5.70;3.00;;;;;;;16.73;7.73;101869.44;5359351;32;34418;-74
2022/03/11 13:51:12;;;;;;;9.25;3.40;;;;;;;16.27;8.44;101857.97;5360363;32;34080;-66
2022/03/11 13:54:23;;;;;;;7.85;3.40;;;;;;;16.52;7.94;101860.53;5378845;32;34519;-73
2022/03/11 13:57:28;;;;;;;7.57;2.83;;;;;;;20.71;6.42;101838.06;5356968;32;35327;-74
2022/03/11 14:00:30;;;;;;;5.90;2.80;;;;;;;16.86;7.98;101848.53;5368490;32;45149;-70
2022/03/11 14:03:44;;;;;;;8.57;2.80;;;;;;;11.78;10.68;101866.06;5365264;32;34001;-65
2022/03/11 14:06:50;;;;;;;5.67;2.60;;;;;;;11.20;11.05;101865.44;5362662;32;35303;-71
2022/03/11 14:09:53;;;;;;;5.70;2.87;;;;;;;9.92;12.60;101863.03;5379764;32;34487;-71
2022/03/11 14:13:06;;;;;;;;;;;;;;;8.89;13.77;101879.00;5360769;32;35273;-72
2022/03/11 14:16:10;;;;;;;6.20;2.63;;;;;;;7.21;15.04;101878.91;5379441;32;34618;-73